For water level readings from Victoria harbour, visit our Tides page.

DISCLAIMER: Although GVHA takes care to produce accurate readings from Ogden Point, the weather information on this site is raw data fed directly from sensors. It does not go through the same quality control processes used by professional weather services, and should not be relied on as a sole source of weather information for Victoria harbour.

In-depth weather values from Victoria Harbour can be found on the Environment Canada website.

Location: Ogden Point Breakwater

Current time: Oct 20, 2019 9:20 PM GMT | Oct 20, 2019 2:20 PM

Last Hour Last 3 Hours Last 6 Hours Last 12 Hours
Time Peak Wind Speed Avg Speed Avg Direction Avg Air Temp Avg Dew Point Avg Humidity
Oct 20, 2019 02:20 PM 7.8 knots 4.9 knots 91° True 10.4° C / 50.8° F 7.8° C / 45.6° F 84.4%
Oct 20, 2019 02:10 PM 5.9 knots 2.4 knots 11° True 10.4° C / 50.8° F 7° C / 44° F 79.6%
Oct 20, 2019 02:00 PM 4.9 knots 1.4 knots 89° True 10.1° C / 50.2° F 6.8° C / 43.6° F 79.8%
Oct 20, 2019 01:50 PM 7 knots 4.4 knots 79° True 9.8° C / 49.6° F 6.3° C / 42.6° F 79%
Oct 20, 2019 01:40 PM 5.5 knots 3.6 knots 98° True 9.5° C / 49° F 6.4° C / 42.8° F 80.9%
Oct 20, 2019 01:30 PM 6.3 knots 3.9 knots 106° True 9.5° C / 49° F 6.7° C / 43.4° F 82.5%
Oct 20, 2019 01:20 PM 8.5 knots 4.8 knots 99° True 9.5° C / 49° F 6.7° C / 43.4° F 82.9%
Oct 20, 2019 01:10 PM 8.1 knots 4.6 knots 92° True 9.4° C / 48.8° F 7° C / 44° F 84.6%
Oct 20, 2019 01:00 PM 8.7 knots 6.1 knots 84° True 9.6° C / 49.2° F 7° C / 44° F 83.8%
Oct 20, 2019 12:50 PM 10.7 knots 7.5 knots 72° True 9.7° C / 49.4° F 7.3° C / 44.6° F 85.3%
Oct 20, 2019 12:40 PM 9.6 knots 7.3 knots 73° True 9.6° C / 49.2° F 7.3° C / 44.6° F 85.9%
Oct 20, 2019 12:30 PM 8.8 knots 6.6 knots 70° True 9.4° C / 48.8° F 7.4° C / 44.8° F 87.3%
Oct 20, 2019 12:20 PM 9.2 knots 7 knots 75° True 9.4° C / 48.8° F 7.5° C / 45° F 88.2%
Oct 20, 2019 12:10 PM 13.4 knots 9 knots 86° True 9.3° C / 48.6° F 7.5° C / 45° F 88.4%
Oct 20, 2019 12:00 PM 14.8 knots 10.2 knots 83° True 9.3° C / 48.6° F 7.5° C / 45° F 88.2%
Oct 20, 2019 11:50 AM 16.7 knots 12.1 knots 82° True 9.3° C / 48.6° F 7.4° C / 44.8° F 87.4%
Oct 20, 2019 11:40 AM 15.7 knots 11.4 knots 78° True 9.4° C / 48.8° F 7.2° C / 44.4° F 86.5%
Oct 20, 2019 11:30 AM 17.9 knots 11.6 knots 71° True 9.3° C / 48.6° F 7.3° C / 44.6° F 87.1%
Oct 20, 2019 11:10 AM 11.4 knots 7.2 knots 51° True 9.1° C / 48.2° F 7.1° C / 44.2° F 87.2%
Oct 20, 2019 11:00 AM 11.1 knots 7.9 knots 60° True 8.9° C / 47.8° F 7° C / 44° F 87.8%
Oct 20, 2019 10:50 AM 13.1 knots 9 knots 68° True 8.7° C / 47.4° F 6.9° C / 43.8° F 88.4%
Oct 20, 2019 10:40 AM 13.5 knots 9.1 knots 69° True 8.6° C / 47.2° F 6.8° C / 43.6° F 88.7%
Oct 20, 2019 10:30 AM 13.4 knots 9.5 knots 70° True 8.7° C / 47.4° F 6.9° C / 43.8° F 88.7%
Oct 20, 2019 10:20 AM 16.1 knots 11.4 knots 74° True 8.7° C / 47.4° F 6.9° C / 43.8° F 88.8%
Oct 20, 2019 10:10 AM 15.6 knots 11.5 knots 74° True 8.6° C / 47.2° F 7° C / 44° F 89.5%
Oct 20, 2019 10:00 AM 15.8 knots 11.5 knots 91° True 8.5° C / 47° F 7° C / 44° F 89.9%
Oct 20, 2019 09:50 AM 15 knots 10.9 knots 82° True 8.3° C / 46.6° F 6.7° C / 43.4° F 89.5%
Oct 20, 2019 09:40 AM 15.7 knots 9.9 knots 74° True 8.1° C / 46.2° F 6.5° C / 43° F 89.6%
Oct 20, 2019 09:30 AM 15 knots 9.9 knots 67° True 8.1° C / 46.2° F 6.5° C / 43° F 89.3%
Oct 20, 2019 09:20 AM 15.5 knots 11.2 knots 73° True 8.2° C / 46.4° F 6.6° C / 43.2° F 89.3%
Oct 20, 2019 09:10 AM 15.9 knots 11.2 knots 80° True 8.3° C / 46.6° F 6.6° C / 43.2° F 88.6%
Oct 20, 2019 09:00 AM 15.6 knots 10.3 knots 71° True 8.3° C / 46.6° F 6.6° C / 43.2° F 88.9%
Oct 20, 2019 08:50 AM 11.9 knots 6 knots 74° True 8.3° C / 46.6° F 6.7° C / 43.4° F 89.5%
Oct 20, 2019 08:40 AM 11.6 knots 6.7 knots 74° True 8.4° C / 46.8° F 6.8° C / 43.6° F 89.6%
Oct 20, 2019 08:30 AM 8.8 knots 5.5 knots 68° True 8.4° C / 46.8° F 6.9° C / 43.8° F 90.3%
Oct 20, 2019 08:20 AM 11.3 knots 7.9 knots 79° True 8.4° C / 46.8° F 6.9° C / 43.8° F 90.4%
Oct 20, 2019 08:10 AM 14.7 knots 10 knots 84° True 8.5° C / 47° F 7° C / 44° F 90.6%
Oct 20, 2019 08:00 AM 15.2 knots 11.6 knots 95° True 8.5° C / 47° F 7° C / 44° F 90.5%
Oct 20, 2019 07:50 AM 17 knots 13.7 knots 96° True 8.4° C / 46.8° F 6.7° C / 43.4° F 89%
Oct 20, 2019 07:40 AM 13.7 knots 9.8 knots 86° True 8.5° C / 47° F 7.1° C / 44.2° F 90.9%
Oct 20, 2019 07:30 AM 12.3 knots 9 knots 86° True 8.4° C / 46.8° F 7.2° C / 44.4° F 91.7%
Oct 20, 2019 07:20 AM 12.2 knots 8.5 knots 83° True 8.4° C / 46.8° F 7.2° C / 44.4° F 92%
Oct 20, 2019 07:10 AM 9.9 knots 8.2 knots 100° True 8.4° C / 46.8° F 7.1° C / 44.2° F 91.8%
Oct 20, 2019 07:00 AM 11 knots 9.8 knots 102° True 8.3° C / 46.6° F 7° C / 44° F 91.7%
Oct 20, 2019 06:50 AM 8.8 knots 6.8 knots 108° True 8.3° C / 46.6° F 7.2° C / 44.4° F 92.4%
Oct 20, 2019 06:40 AM 8.5 knots 6.7 knots 108° True 8.3° C / 46.6° F 7.2° C / 44.4° F 92.6%
Oct 20, 2019 06:30 AM 10.6 knots 8.3 knots 106° True 8.3° C / 46.6° F 7.2° C / 44.4° F 92.4%
Oct 20, 2019 06:20 AM 12.2 knots 9.1 knots 102° True 8.3° C / 46.6° F 7.2° C / 44.4° F 92.5%
Oct 20, 2019 06:10 AM 13.1 knots 9.8 knots 112° True 8.3° C / 46.6° F 7.2° C / 44.4° F 92.8%
Oct 20, 2019 06:00 AM 11.4 knots 8.2 knots 113° True 8.3° C / 46.6° F 7.2° C / 44.4° F 92.5%
Oct 20, 2019 05:50 AM 10.4 knots 8.7 knots 111° True 8.3° C / 46.6° F 7.1° C / 44.2° F 91.9%
Oct 20, 2019 05:40 AM 12.5 knots 10.3 knots 108° True 8.4° C / 46.8° F 7.1° C / 44.2° F 91.4%
Oct 20, 2019 05:30 AM 12.8 knots 10.6 knots 105° True 8.6° C / 47.2° F 7.2° C / 44.4° F 90.6%
Oct 20, 2019 05:20 AM 12.4 knots 10.4 knots 109° True 8.8° C / 47.6° F 7.1° C / 44.2° F 89.4%
Oct 20, 2019 05:10 AM 10.7 knots 8.8 knots 114° True 8.8° C / 47.6° F 7.1° C / 44.2° F 88.8%
Oct 20, 2019 05:00 AM 11.1 knots 8.5 knots 103° True 8.8° C / 47.6° F 7.2° C / 44.4° F 89.9%
Oct 20, 2019 04:50 AM 8.6 knots 6.5 knots 100° True 8.9° C / 47.8° F 7.6° C / 45.2° F 92%
Oct 20, 2019 04:40 AM 8 knots 6.2 knots 96° True 9° C / 48° F 7.8° C / 45.6° F 92.6%
Oct 20, 2019 04:30 AM 6.6 knots 3.9 knots 77° True 9° C / 48° F 7.7° C / 45.4° F 92%
Oct 20, 2019 04:20 AM 6 knots 4 knots 72° True 8.9° C / 47.8° F 7.6° C / 45.2° F 91%
Oct 20, 2019 04:10 AM 5.4 knots 3.9 knots 78° True 9° C / 48° F 7.4° C / 44.8° F 89.7%
Oct 20, 2019 04:00 AM 6.8 knots 5 knots 99° True 9° C / 48° F 7.2° C / 44.4° F 88.3%
Oct 20, 2019 03:50 AM 6.6 knots 4.7 knots 94° True 9.1° C / 48.2° F 6.8° C / 43.6° F 85.7%
Oct 20, 2019 03:40 AM 7.6 knots 4.6 knots 91° True 9.3° C / 48.6° F 6.3° C / 42.6° F 81.5%
Oct 20, 2019 03:30 AM 6.4 knots 5 knots 119° True 9.4° C / 48.8° F 5.7° C / 41.4° F 77.8%
Oct 20, 2019 03:20 AM 6.9 knots 5.6 knots 133° True 9.5° C / 49° F 5.9° C / 41.8° F 78.5%
Oct 20, 2019 03:10 AM 9.2 knots 7.1 knots 141° True 9.5° C / 49° F 5.7° C / 41.4° F 76.9%
Oct 20, 2019 03:00 AM 9.1 knots 7.7 knots 135° True 9.5° C / 49° F 6.2° C / 42.4° F 79.9%
Oct 20, 2019 02:50 AM 9.3 knots 8.1 knots 137° True 9.6° C / 49.2° F 6.3° C / 42.6° F 80.1%
Oct 20, 2019 02:40 AM 8.4 knots 6.9 knots 140° True 9.5° C / 49° F 6.6° C / 43.2° F 82.1%
Oct 20, 2019 02:30 AM 6.7 knots 5.8 knots 158° True 9.6° C / 49.2° F 7.3° C / 44.6° F 85.6%